Time;durP1;ratioP1;P1;durP2;ratioP2;P2;SDS_P1;SDS_P2;PMS_P1;PMS_P2;Temp;Humidity;BMP_temperature;BMP_pressure;BME280_temperature;BME280_humidity;BME280_pressure;Samples;Min_cycle;Max_cycle;Signal;HPM_P1;HPM_P2
2022/11/09 00:01:32;;;;;;;2.20;1.90;;;;;;;;;;4959931;28;20476;-54
2022/11/09 00:03:59;;;;;;;2.90;1.80;;;;;;;;;;4985598;28;20436;-55
2022/11/09 00:06:25;;;;;;;3.63;2.33;;;;;;;;;;4978197;28;20970;-56
2022/11/09 00:08:51;;;;;;;2.73;1.97;;;;;;;;;;4981557;28;20481;-56
2022/11/09 00:11:17;;;;;;;2.37;1.93;;;;;;;;;;4946839;28;20620;-55
2022/11/09 00:13:43;;;;;;;3.17;2.33;;;;;;;;;;4982421;28;20447;-54
2022/11/09 00:16:10;;;;;;;2.67;2.10;;;;;;;;;;4977939;28;21533;-57
2022/11/09 00:18:36;;;;;;;4.40;1.77;;;;;;;;;;4986278;28;20504;-55
2022/11/09 00:21:08;;;;;;;3.90;1.97;;;;;;;;;;4975763;28;20919;-56
2022/11/09 00:23:34;;;;;;;6.33;1.40;;;;;;;;;;4986605;28;20448;-56
2022/11/09 00:26:01;;;;;;;3.77;1.70;;;;;;;;;;4934616;28;20616;-55
2022/11/09 00:28:27;;;;;;;2.30;1.70;;;;;;;;;;4974790;28;20433;-55
2022/11/09 00:30:58;;;;;;;4.17;1.70;;;;;;;;;;4963125;28;20555;-56
2022/11/09 00:33:24;;;;;;;3.10;2.10;;;;;;;;;;4982025;28;20438;-56
2022/11/09 00:35:50;;;;;;;2.70;1.90;;;;;;;;;;4981541;28;20481;-56
2022/11/09 00:38:16;;;;;;;7.10;2.47;;;;;;;;;;4985914;28;20877;-55
2022/11/09 00:40:42;;;;;;;2.80;1.70;;;;;;;;;;4980133;28;20674;-55
2022/11/09 00:43:08;;;;;;;3.37;2.40;;;;;;;;;;4941045;28;20453;-55
2022/11/09 00:45:34;;;;;;;4.97;2.10;;;;;;;;;;4985005;28;20461;-54
2022/11/09 00:48:00;;;;;;;6.50;2.43;;;;;;;;;;4977988;28;20495;-55
2022/11/09 00:50:26;;;;;;;3.50;2.03;;;;;;;;;;4985540;28;20617;-55
2022/11/09 00:52:52;;;;;;;6.37;2.60;;;;;;;;;;4956187;28;20493;-55
2022/11/09 00:55:19;;;;;;;4.50;2.40;;;;;;;;;;4983586;28;20567;-55
2022/11/09 00:57:48;;;;;;;2.10;1.80;;;;;;;;;;4940569;28;20442;-54
2022/11/09 01:00:16;;;;;;;3.40;2.53;;;;;;;;;;4956907;28;20503;-55
2022/11/09 01:02:42;;;;;;;3.27;2.57;;;;;;;;;;4955122;28;20516;-55
2022/11/09 01:05:08;;;;;;;2.97;1.97;;;;;;;;;;4981108;28;20526;-54
2022/11/09 01:07:35;;;;;;;2.20;1.63;;;;;;;;;;4974661;28;20457;-55
2022/11/09 01:10:01;;;;;;;5.60;2.40;;;;;;;;;;4979218;28;20444;-53
2022/11/09 01:12:27;;;;;;;3.30;2.27;;;;;;;;;;4956635;28;20441;-55
2022/11/09 01:14:53;;;;;;;3.03;2.30;;;;;;;;;;4979710;28;20981;-55
2022/11/09 01:17:20;;;;;;;2.77;2.20;;;;;;;;;;4947045;28;20588;-54
2022/11/09 01:19:46;;;;;;;2.77;2.00;;;;;;;;;;4972466;28;20456;-54
2022/11/09 01:22:11;;;;;;;3.30;1.60;;;;;;;;;;4955307;28;20449;-54
2022/11/09 01:24:37;;;;;;;2.27;1.90;;;;;;;;;;4977090;28;20533;-55
2022/11/09 01:27:07;;;;;;;4.50;2.50;;;;;;;;;;4964353;28;20461;-53
2022/11/09 01:29:33;;;;;;;3.10;2.00;;;;;;;;;;4949249;28;20524;-57
2022/11/09 01:31:59;;;;;;;3.20;2.30;;;;;;;;;;4956619;28;20460;-54
2022/11/09 01:34:27;;;;;;;3.60;2.03;;;;;;;;;;4979749;28;20437;-55
2022/11/09 01:36:53;;;;;;;3.70;1.97;;;;;;;;;;4955836;28;20464;-54
2022/11/09 01:39:19;;;;;;;3.83;2.47;;;;;;;;;;4981310;28;20441;-56
2022/11/09 01:41:45;;;;;;;5.90;2.10;;;;;;;;;;4957954;28;20558;-54
2022/11/09 01:44:11;;;;;;;2.87;1.57;;;;;;;;;;4978872;28;20456;-55
2022/11/09 01:46:38;;;;;;;5.53;2.17;;;;;;;;;;4956311;28;20430;-53
2022/11/09 01:49:07;;;;;;;2.77;2.37;;;;;;;;;;4978427;28;20471;-55
2022/11/09 01:51:37;;;;;;;8.13;2.60;;;;;;;;;;4949402;28;20452;-54
2022/11/09 01:54:04;;;;;;;4.50;2.30;;;;;;;;;;4982799;28;20787;-54
2022/11/09 01:56:30;;;;;;;3.27;2.37;;;;;;;;;;4973084;28;20515;-55
2022/11/09 01:59:05;;;;;;;2.43;1.93;;;;;;;;;;4979105;28;20425;-57
2022/11/09 02:01:31;;;;;;;3.77;2.20;;;;;;;;;;4938448;28;20456;-54
2022/11/09 02:04:23;;;;;;;3.30;1.87;;;;;;;;;;4975850;28;20484;-54
2022/11/09 02:06:49;;;;;;;2.07;1.77;;;;;;;;;;4972789;28;20445;-55
2022/11/09 02:09:26;;;;;;;3.40;1.67;;;;;;;;;;4977211;28;20448;-55
2022/11/09 02:11:52;;;;;;;2.80;2.03;;;;;;;;;;4952638;28;20452;-54
2022/11/09 02:14:18;;;;;;;2.53;1.90;;;;;;;;;;4972063;28;20502;-54
2022/11/09 02:16:44;;;;;;;2.93;1.77;;;;;;;;;;4958159;28;20833;-54
2022/11/09 02:19:10;;;;;;;8.07;2.07;;;;;;;;;;4976415;28;20507;-55
2022/11/09 02:21:36;;;;;;;4.03;1.53;;;;;;;;;;4974108;28;20440;-54
2022/11/09 02:24:02;;;;;;;3.07;2.30;;;;;;;;;;4968338;28;20426;-53
2022/11/09 02:26:33;;;;;;;3.40;2.40;;;;;;;;;;4949623;28;20479;-55
2022/11/09 02:28:59;;;;;;;3.87;2.20;;;;;;;;;;4973836;28;20445;-53
2022/11/09 02:31:26;;;;;;;2.97;2.00;;;;;;;;;;4934241;28;20469;-55
2022/11/09 02:33:55;;;;;;;1.97;1.57;;;;;;;;;;4973508;28;20479;-55
2022/11/09 02:36:24;;;;;;;3.00;1.97;;;;;;;;;;4976545;28;20483;-55
2022/11/09 02:38:51;;;;;;;2.87;2.10;;;;;;;;;;4979259;28;20464;-55
2022/11/09 02:41:17;;;;;;;4.30;1.90;;;;;;;;;;4973107;28;20449;-53
2022/11/09 02:43:42;;;;;;;3.40;1.93;;;;;;;;;;4972015;28;20450;-54
2022/11/09 02:46:09;;;;;;;2.23;1.90;;;;;;;;;;4978766;28;20445;-55
2022/11/09 02:48:34;;;;;;;3.60;2.27;;;;;;;;;;4958798;28;20425;-53
2022/11/09 02:51:00;;;;;;;2.90;1.70;;;;;;;;;;4980309;28;20456;-55
2022/11/09 02:53:26;;;;;;;3.77;2.30;;;;;;;;;;4950172;28;20463;-55
2022/11/09 02:55:52;;;;;;;3.80;1.97;;;;;;;;;;4979294;28;20591;-55
2022/11/09 02:58:18;;;;;;;2.77;2.27;;;;;;;;;;4949648;28;20480;-55
2022/11/09 03:00:44;;;;;;;3.73;2.50;;;;;;;;;;4977254;28;20969;-55
2022/11/09 03:03:10;;;;;;;5.23;3.20;;;;;;;;;;4933273;28;20445;-55
2022/11/09 03:05:36;;;;;;;2.57;2.27;;;;;;;;;;4975908;28;20491;-54
2022/11/09 03:08:02;;;;;;;4.70;2.43;;;;;;;;;;4972722;28;20495;-55
2022/11/09 03:10:28;;;;;;;9.07;3.07;;;;;;;;;;4977228;28;20643;-55
2022/11/09 03:12:54;;;;;;;3.93;2.80;;;;;;;;;;4953692;28;22740;-55
2022/11/09 03:15:20;;;;;;;4.47;3.37;;;;;;;;;;4979015;28;20481;-54
2022/11/09 03:17:46;;;;;;;4.43;2.43;;;;;;;;;;4958451;28;20435;-54
2022/11/09 03:20:12;;;;;;;3.03;2.37;;;;;;;;;;4974237;28;20455;-54
2022/11/09 03:22:38;;;;;;;4.80;3.03;;;;;;;;;;4960521;28;21369;-55
2022/11/09 03:25:04;;;;;;;10.57;2.40;;;;;;;;;;4963031;28;20535;-55
2022/11/09 03:27:31;;;;;;;5.50;2.87;;;;;;;;;;4959369;28;23634;-55
2022/11/09 03:29:56;;;;;;;4.20;2.50;;;;;;;;;;4978822;28;20473;-56
2022/11/09 03:32:42;;;;;;;4.97;2.90;;;;;;;;;;4956036;28;20441;-57
2022/11/09 03:35:09;;;;;;;6.03;3.53;;;;;;;;;;4961643;28;20521;-56
2022/11/09 03:37:35;;;;;;;5.40;3.17;;;;;;;;;;4973396;28;21068;-57
2022/11/09 03:40:01;;;;;;;4.90;3.37;;;;;;;;;;4976130;28;20437;-57
2022/11/09 03:42:27;;;;;;;4.43;3.03;;;;;;;;;;4975578;28;20444;-57
2022/11/09 03:44:53;;;;;;;4.00;3.10;;;;;;;;;;4948397;28;20441;-55
2022/11/09 03:47:19;;;;;;;5.37;2.93;;;;;;;;;;4975853;28;20440;-57
2022/11/09 03:49:45;;;;;;;5.23;3.23;;;;;;;;;;4958783;28;20463;-56
2022/11/09 03:52:11;;;;;;;4.60;2.73;;;;;;;;;;4974032;28;20436;-57
2022/11/09 03:54:37;;;;;;;6.70;3.40;;;;;;;;;;4959646;28;20914;-55
2022/11/09 03:57:03;;;;;;;4.97;3.00;;;;;;;;;;4981700;28;20456;-57
2022/11/09 03:59:29;;;;;;;4.40;3.10;;;;;;;;;;4958373;28;20468;-56
2022/11/09 04:01:55;;;;;;;8.13;3.80;;;;;;;;;;4973638;28;20455;-57
2022/11/09 04:04:21;;;;;;;3.97;3.23;;;;;;;;;;4967404;28;20487;-55
2022/11/09 04:06:47;;;;;;;4.90;3.67;;;;;;;;;;4969567;28;20458;-54
2022/11/09 04:09:13;;;;;;;4.63;3.47;;;;;;;;;;4983451;28;20440;-55
2022/11/09 04:11:39;;;;;;;6.47;3.40;;;;;;;;;;4975549;28;20448;-54
2022/11/09 04:14:05;;;;;;;4.53;3.80;;;;;;;;;;4978892;28;20439;-57
2022/11/09 04:16:32;;;;;;;4.23;3.27;;;;;;;;;;4976225;28;20483;-57
2022/11/09 04:18:58;;;;;;;4.60;3.70;;;;;;;;;;4979995;28;20528;-54
2022/11/09 04:21:24;;;;;;;4.03;3.43;;;;;;;;;;4959355;28;20452;-57
2022/11/09 04:23:50;;;;;;;4.43;4.03;;;;;;;;;;4976304;28;20454;-56
2022/11/09 04:26:16;;;;;;;13.77;3.70;;;;;;;;;;4959127;28;21042;-55
2022/11/09 04:28:42;;;;;;;3.13;2.70;;;;;;;;;;4980564;28;20455;-52
2022/11/09 04:31:08;;;;;;;3.70;2.93;;;;;;;;;;4975765;28;20512;-55
2022/11/09 04:33:34;;;;;;;4.50;3.20;;;;;;;;;;4977656;28;20990;-57
2022/11/09 04:36:03;;;;;;;4.40;3.10;;;;;;;;;;4950222;28;20539;-54
2022/11/09 04:38:29;;;;;;;4.20;3.07;;;;;;;;;;4984968;28;20452;-57
2022/11/09 04:40:59;;;;;;;3.70;3.17;;;;;;;;;;4939271;28;20452;-56
2022/11/09 04:43:24;;;;;;;4.90;2.80;;;;;;;;;;4983347;28;20437;-56
2022/11/09 04:45:51;;;;;;;4.40;2.93;;;;;;;;;;4924052;28;20524;-56
2022/11/09 04:48:17;;;;;;;4.00;3.60;;;;;;;;;;4979102;28;20457;-56
2022/11/09 04:50:43;;;;;;;5.57;3.60;;;;;;;;;;4958106;28;20860;-56
2022/11/09 04:53:14;;;;;;;4.00;3.30;;;;;;;;;;4979171;28;20795;-56
2022/11/09 04:55:40;;;;;;;3.73;3.27;;;;;;;;;;4972183;28;20503;-56
2022/11/09 04:58:06;;;;;;;4.00;3.10;;;;;;;;;;4978368;28;20512;-57
2022/11/09 05:00:32;;;;;;;13.50;4.60;;;;;;;;;;4958276;28;21083;-55
2022/11/09 05:02:59;;;;;;;5.13;4.47;;;;;;;;;;4978752;28;20798;-55
2022/11/09 05:05:25;;;;;;;6.73;4.50;;;;;;;;;;4954789;28;20472;-60
2022/11/09 05:07:51;;;;;;;5.00;4.10;;;;;;;;;;4976922;28;20429;-56
2022/11/09 05:10:24;;;;;;;4.40;3.83;;;;;;;;;;4954360;28;20477;-56
2022/11/09 05:12:51;;;;;;;5.67;3.80;;;;;;;;;;4967852;28;20440;-56
2022/11/09 05:15:17;;;;;;;5.00;4.50;;;;;;;;;;4962060;28;20482;-56
2022/11/09 05:17:43;;;;;;;5.47;4.00;;;;;;;;;;4974446;28;20428;-57
2022/11/09 05:20:09;;;;;;;5.70;3.70;;;;;;;;;;4980073;28;20555;-56
2022/11/09 05:25:23;;;;;;;8.43;3.50;;;;;;;;;;4957573;28;20498;-55
2022/11/09 05:27:49;;;;;;;5.00;3.80;;;;;;;;;;4977342;28;20452;-56
2022/11/09 05:30:15;;;;;;;4.63;4.20;;;;;;;;;;4976403;28;20504;-56
2022/11/09 05:32:41;;;;;;;7.10;4.40;;;;;;;;;;4969818;28;20993;-54
2022/11/09 05:35:08;;;;;;;4.93;4.43;;;;;;;;;;4962116;28;20844;-55
2022/11/09 05:37:34;;;;;;;5.07;4.03;;;;;;;;;;4971344;28;20818;-56
2022/11/09 05:40:00;;;;;;;6.40;5.10;;;;;;;;;;4980894;28;20433;-56
2022/11/09 05:42:26;;;;;;;4.40;4.00;;;;;;;;;;4979231;28;20480;-56
2022/11/09 05:44:54;;;;;;;4.30;3.90;;;;;;;;;;4972541;28;20477;-54
2022/11/09 05:47:21;;;;;;;5.63;4.10;;;;;;;;;;4945613;28;20556;-56
2022/11/09 05:49:47;;;;;;;12.17;8.67;;;;;;;;;;4981781;28;20507;-54
2022/11/09 05:52:13;;;;;;;6.83;4.70;;;;;;;;;;4972583;28;20449;-54
2022/11/09 05:54:39;;;;;;;6.40;4.00;;;;;;;;;;4983895;28;20496;-56
2022/11/09 05:57:05;;;;;;;5.27;4.77;;;;;;;;;;4960307;28;20845;-55
2022/11/09 05:59:31;;;;;;;6.67;4.63;;;;;;;;;;4985479;28;20445;-54
2022/11/09 06:01:57;;;;;;;5.33;3.93;;;;;;;;;;4974152;28;20460;-55
2022/11/09 06:04:23;;;;;;;6.00;4.60;;;;;;;;;;4982107;28;20476;-55
2022/11/09 06:06:49;;;;;;;4.63;4.13;;;;;;;;;;4979351;28;20950;-55
2022/11/09 06:09:15;;;;;;;7.50;4.73;;;;;;;;;;4976784;28;20425;-56
2022/11/09 06:11:41;;;;;;;5.80;5.30;;;;;;;;;;4954806;28;20532;-56
2022/11/09 06:14:07;;;;;;;8.33;5.10;;;;;;;;;;4982900;28;20441;-56
2022/11/09 06:16:33;;;;;;;5.23;3.93;;;;;;;;;;4936856;28;20479;-57
2022/11/09 06:19:00;;;;;;;8.20;5.80;;;;;;;;;;4975107;28;20860;-54
2022/11/09 06:21:26;;;;;;;7.03;5.83;;;;;;;;;;4931813;28;20575;-57
2022/11/09 06:23:52;;;;;;;6.00;4.37;;;;;;;;;;4983874;28;20440;-58
2022/11/09 06:26:18;;;;;;;7.03;6.30;;;;;;;;;;4961345;28;20978;-59
2022/11/09 06:28:44;;;;;;;8.20;4.83;;;;;;;;;;4981309;28;20449;-57
2022/11/09 06:31:12;;;;;;;5.63;4.73;;;;;;;;;;4967291;28;20542;-54
2022/11/09 06:33:38;;;;;;;5.60;5.00;;;;;;;;;;4943088;28;20536;-58
2022/11/09 06:36:04;;;;;;;5.97;4.57;;;;;;;;;;4977643;28;20571;-55
2022/11/09 06:38:30;;;;;;;6.20;5.50;;;;;;;;;;4978405;28;20521;-57
2022/11/09 06:40:56;;;;;;;6.77;4.87;;;;;;;;;;4981979;28;20537;-58
2022/11/09 06:43:22;;;;;;;6.33;4.53;;;;;;;;;;4955514;28;20519;-58
2022/11/09 06:45:48;;;;;;;4.57;4.17;;;;;;;;;;4983365;28;20535;-58
2022/11/09 06:48:14;;;;;;;5.27;3.87;;;;;;;;;;4926825;28;20448;-58
2022/11/09 06:50:40;;;;;;;4.73;4.20;;;;;;;;;;4961076;28;21198;-57
2022/11/09 06:53:07;;;;;;;4.60;4.10;;;;;;;;;;4978023;28;20468;-57
2022/11/09 06:55:33;;;;;;;6.40;4.57;;;;;;;;;;4957970;28;20477;-57
2022/11/09 06:57:59;;;;;;;5.67;4.40;;;;;;;;;;4958300;28;20516;-58
2022/11/09 07:00:26;;;;;;;9.00;5.27;;;;;;;;;;4979634;28;20508;-60
2022/11/09 07:02:52;;;;;;;7.10;4.43;;;;;;;;;;4975570;28;20475;-58
2022/11/09 07:05:18;;;;;;;5.37;4.50;;;;;;;;;;4981866;28;20942;-58
2022/11/09 07:07:44;;;;;;;5.20;4.70;;;;;;;;;;4974664;28;20442;-58
2022/11/09 07:10:10;;;;;;;6.53;4.57;;;;;;;;;;4979857;28;20499;-58
2022/11/09 07:12:36;;;;;;;4.63;4.00;;;;;;;;;;4959948;28;20452;-57
2022/11/09 07:15:02;;;;;;;5.40;3.20;;;;;;;;;;4982449;28;20484;-59
2022/11/09 07:17:31;;;;;;;7.50;3.67;;;;;;;;;;4936697;28;20786;-60
2022/11/09 07:19:57;;;;;;;6.60;4.33;;;;;;;;;;4979266;28;20443;-60
2022/11/09 07:22:23;;;;;;;4.57;3.47;;;;;;;;;;4954456;28;21080;-58
2022/11/09 07:24:49;;;;;;;5.00;3.17;;;;;;;;;;4976431;28;20975;-58
2022/11/09 07:27:15;;;;;;;7.00;3.40;;;;;;;;;;4976573;28;20445;-57
2022/11/09 07:29:41;;;;;;;3.90;3.40;;;;;;;;;;4983644;28;20480;-57
2022/11/09 07:32:07;;;;;;;8.10;3.30;;;;;;;;;;4961353;28;20535;-61
2022/11/09 07:34:33;;;;;;;3.97;2.60;;;;;;;;;;4981584;28;20437;-59
2022/11/09 07:36:59;;;;;;;3.50;2.70;;;;;;;;;;4983285;28;20471;-59
2022/11/09 07:39:25;;;;;;;5.60;3.27;;;;;;;;;;4980519;28;20455;-59
2022/11/09 07:41:51;;;;;;;4.93;4.07;;;;;;;;;;4988183;28;20812;-59
2022/11/09 07:44:17;;;;;;;4.30;3.50;;;;;;;;;;4959458;28;20445;-60
2022/11/09 07:46:47;;;;;;;7.20;4.00;;;;;;;;;;4984664;28;20515;-59
2022/11/09 07:49:13;;;;;;;4.80;3.27;;;;;;;;;;4943184;28;21351;-58
2022/11/09 07:51:39;;;;;;;5.30;4.10;;;;;;;;;;4986204;28;20441;-58
2022/11/09 07:54:05;;;;;;;4.80;3.60;;;;;;;;;;4963971;28;20437;-58
2022/11/09 07:56:31;;;;;;;3.27;2.97;;;;;;;;;;4988735;28;20480;-57
2022/11/09 07:58:57;;;;;;;5.57;5.07;;;;;;;;;;4983864;28;20527;-58
2022/11/09 08:01:23;;;;;;;8.27;5.47;;;;;;;;;;4988214;28;20432;-58
2022/11/09 08:03:49;;;;;;;8.10;6.27;;;;;;;;;;4962632;28;20446;-58
2022/11/09 08:06:15;;;;;;;6.80;5.73;;;;;;;;;;4985633;28;21216;-58
2022/11/09 08:08:41;;;;;;;5.93;5.20;;;;;;;;;;4983558;28;20453;-57
2022/11/09 08:11:07;;;;;;;6.10;3.83;;;;;;;;;;4981445;28;20531;-60
2022/11/09 08:13:33;;;;;;;6.10;5.03;;;;;;;;;;4962231;28;20477;-58
2022/11/09 08:16:01;;;;;;;10.00;4.13;;;;;;;;;;4997396;28;20835;-60
2022/11/09 08:18:26;;;;;;;5.63;4.00;;;;;;;;;;4980801;28;20506;-57
2022/11/09 08:20:52;;;;;;;4.60;4.10;;;;;;;;;;4986123;28;20453;-58
2022/11/09 08:23:19;;;;;;;5.73;4.37;;;;;;;;;;4945537;28;20450;-59
2022/11/09 08:25:45;;;;;;;4.57;4.10;;;;;;;;;;4984346;28;20444;-59
2022/11/09 08:28:11;;;;;;;6.57;4.53;;;;;;;;;;4982354;28;20449;-60
2022/11/09 08:30:37;;;;;;;5.83;3.47;;;;;;;;;;4986264;28;20441;-59
2022/11/09 08:33:04;;;;;;;5.97;4.03;;;;;;;;;;4966575;28;20462;-58
2022/11/09 08:35:30;;;;;;;5.10;3.93;;;;;;;;;;4982296;28;20499;-58
2022/11/09 08:37:56;;;;;;;6.60;3.47;;;;;;;;;;4982669;28;21008;-58
2022/11/09 08:40:23;;;;;;;4.70;4.13;;;;;;;;;;4975536;28;20441;-58
2022/11/09 08:42:49;;;;;;;5.27;3.90;;;;;;;;;;4971756;28;20453;-59
2022/11/09 08:45:15;;;;;;;3.70;3.20;;;;;;;;;;4950628;28;20447;-59
2022/11/09 08:47:43;;;;;;;3.27;2.83;;;;;;;;;;4978989;28;20462;-57
2022/11/09 08:50:09;;;;;;;3.77;2.70;;;;;;;;;;4979999;28;20436;-59
2022/11/09 08:52:35;;;;;;;3.23;2.50;;;;;;;;;;4981695;28;20949;-58
2022/11/09 08:55:16;;;;;;;3.30;2.80;;;;;;;;;;4978900;28;22361;-58
2022/11/09 08:57:43;;;;;;;4.40;3.67;;;;;;;;;;4972107;28;20976;-58
2022/11/09 09:00:09;;;;;;;2.30;2.00;;;;;;;;;;4981557;28;20449;-59
2022/11/09 09:02:35;;;;;;;2.77;2.03;;;;;;;;;;4986889;28;20437;-57
2022/11/09 09:05:01;;;;;;;2.60;2.23;;;;;;;;;;4971464;28;20479;-60
2022/11/09 09:07:27;;;;;;;2.83;2.10;;;;;;;;;;4979346;28;20482;-58
2022/11/09 09:09:53;;;;;;;3.40;2.17;;;;;;;;;;4973146;28;21442;-57
2022/11/09 09:12:19;;;;;;;3.43;2.30;;;;;;;;;;4978440;28;20448;-57
2022/11/09 09:14:45;;;;;;;2.70;2.23;;;;;;;;;;4979725;28;20443;-58
2022/11/09 09:17:11;;;;;;;2.73;2.53;;;;;;;;;;4982263;28;20802;-58
2022/11/09 09:19:37;;;;;;;4.10;2.63;;;;;;;;;;4984232;28;20440;-58
2022/11/09 09:22:03;;;;;;;3.33;2.10;;;;;;;;;;4981404;28;20860;-58
2022/11/09 09:24:39;;;;;;;2.03;1.43;;;;;;;;;;4979083;28;20546;-57
2022/11/09 09:27:05;;;;;;;2.60;1.30;;;;;;;;;;4958272;28;20536;-58
2022/11/09 09:29:32;;;;;;;2.20;1.50;;;;;;;;;;4981821;28;20780;-58
2022/11/09 09:31:57;;;;;;;2.30;1.70;;;;;;;;;;4967859;28;20445;-57
2022/11/09 09:34:24;;;;;;;1.90;1.33;;;;;;;;;;4982592;28;20447;-57
2022/11/09 09:36:53;;;;;;;3.20;1.43;;;;;;;;;;4984532;28;20481;-57
2022/11/09 09:39:19;;;;;;;2.80;1.37;;;;;;;;;;4978286;28;20500;-59
2022/11/09 09:41:46;;;;;;;2.43;1.30;;;;;;;;;;4985745;28;21029;-57
2022/11/09 09:44:16;;;;;;;1.80;1.07;;;;;;;;;;4959277;28;20553;-57
2022/11/09 09:46:53;;;;;;;2.20;1.43;;;;;;;;;;4978066;28;20436;-57
2022/11/09 09:49:20;;;;;;;2.00;1.43;;;;;;;;;;4939394;28;20445;-57
2022/11/09 09:51:49;;;;;;;1.90;1.20;;;;;;;;;;4996774;28;20429;-57
2022/11/09 09:54:25;;;;;;;2.67;1.33;;;;;;;;;;4961086;28;20436;-58
2022/11/09 09:56:52;;;;;;;2.37;1.13;;;;;;;;;;4984513;28;20531;-58
2022/11/09 09:59:25;;;;;;;1.97;1.27;;;;;;;;;;4949779;28;20459;-61
2022/11/09 10:01:52;;;;;;;1.67;1.03;;;;;;;;;;4963749;28;21152;-57
2022/11/09 10:04:21;;;;;;;2.37;1.60;;;;;;;;;;4982555;28;20519;-57
2022/11/09 10:07:06;;;;;;;2.30;1.43;;;;;;;;;;4957608;28;20449;-57
2022/11/09 10:09:35;;;;;;;4.10;1.27;;;;;;;;;;4981810;28;20515;-57
2022/11/09 10:12:01;;;;;;;1.73;1.30;;;;;;;;;;4970466;28;20460;-57
2022/11/09 10:14:46;;;;;;;3.10;1.30;;;;;;;;;;4982402;28;20425;-57
2022/11/09 10:17:12;;;;;;;2.97;1.60;;;;;;;;;;4970447;28;20468;-58
2022/11/09 10:19:50;;;;;;;2.80;1.43;;;;;;;;;;4982828;28;20436;-59
2022/11/09 10:22:16;;;;;;;2.67;1.70;;;;;;;;;;4980395;28;20188;-57
2022/11/09 10:24:45;;;;;;;2.00;1.50;;;;;;;;;;4981209;28;20429;-57
2022/11/09 10:27:17;;;;;;;2.30;1.60;;;;;;;;;;4982171;28;20461;-57
2022/11/09 10:29:50;;;;;;;3.00;1.60;;;;;;;;;;4975680;28;20464;-59
2022/11/09 10:32:21;;;;;;;2.90;1.67;;;;;;;;;;4963603;28;20449;-57
2022/11/09 10:34:47;;;;;;;2.83;1.77;;;;;;;;;;4984931;28;21274;-57
2022/11/09 10:37:18;;;;;;;2.63;1.63;;;;;;;;;;4970677;28;20549;-56
2022/11/09 10:39:47;;;;;;;3.13;1.67;;;;;;;;;;4982339;28;20463;-57
2022/11/09 10:42:13;;;;;;;2.33;1.60;;;;;;;;;;4980454;28;20456;-58
2022/11/09 10:44:39;;;;;;;2.97;1.40;;;;;;;;;;4977448;28;20485;-57
2022/11/09 10:47:17;;;;;;;2.93;2.20;;;;;;;;;;4968482;28;20447;-57
2022/11/09 10:49:43;;;;;;;2.00;1.50;;;;;;;;;;4968039;28;20485;-57
2022/11/09 10:52:30;;;;;;;3.03;2.13;;;;;;;;;;4979269;28;21460;-58
2022/11/09 10:55:14;;;;;;;3.40;1.73;;;;;;;;;;4978698;28;20433;-57
2022/11/09 10:57:49;;;;;;;2.93;1.70;;;;;;;;;;4985057;28;20456;-56
2022/11/09 11:00:16;;;;;;;2.30;1.60;;;;;;;;;;4979655;28;20487;-57
2022/11/09 11:02:43;;;;;;;12.00;1.87;;;;;;;;;;4980499;28;20445;-55
2022/11/09 11:05:11;;;;;;;4.33;1.87;;;;;;;;;;4941892;28;21085;-56
2022/11/09 11:07:37;;;;;;;3.67;1.60;;;;;;;;;;4979850;28;20446;-57
2022/11/09 11:10:15;;;;;;;2.57;1.90;;;;;;;;;;4975022;28;20448;-56
2022/11/09 11:12:42;;;;;;;11.30;1.83;;;;;;;;;;4985249;28;20429;-55
2022/11/09 11:15:23;;;;;;;5.60;2.00;;;;;;;;;;4964095;28;20449;-56
2022/11/09 11:17:49;;;;;;;2.77;2.10;;;;;;;;;;4985553;28;20445;-55
2022/11/09 11:20:24;;;;;;;2.43;1.50;;;;;;;;;;4960869;28;20653;-56
2022/11/09 11:22:50;;;;;;;2.40;1.63;;;;;;;;;;4977986;28;20464;-56
2022/11/09 11:25:20;;;;;;;2.67;1.80;;;;;;;;;;4958821;28;22025;-57
2022/11/09 11:27:48;;;;;;;2.80;2.10;;;;;;;;;;4983781;28;20226;-56
2022/11/09 11:30:15;;;;;;;2.63;1.90;;;;;;;;;;4972150;28;20445;-54
2022/11/09 11:32:41;;;;;;;2.30;1.60;;;;;;;;;;4979814;28;20437;-55
2022/11/09 11:35:15;;;;;;;4.47;2.10;;;;;;;;;;4944205;28;20457;-55
2022/11/09 11:38:01;;;;;;;3.60;1.87;;;;;;;;;;4979852;28;20839;-55
2022/11/09 11:40:32;;;;;;;2.93;1.43;;;;;;;;;;4969800;28;20434;-56
2022/11/09 11:43:17;;;;;;;2.67;1.77;;;;;;;;;;4972466;28;20445;-56
2022/11/09 11:45:47;;;;;;;3.43;1.83;;;;;;;;;;4981297;28;20434;-56
2022/11/09 11:48:13;;;;;;;3.20;2.23;;;;;;;;;;4956613;28;20451;-55
2022/11/09 11:50:39;;;;;;;2.70;1.60;;;;;;;;;;4978868;28;20472;-56
2022/11/09 11:53:09;;;;;;;1.90;1.53;;;;;;;;;;4967005;28;20450;-55
2022/11/09 11:55:42;;;;;;;2.43;1.60;;;;;;;;;;4973730;28;20540;-55
2022/11/09 11:58:13;;;;;;;2.77;2.07;;;;;;;;;;4974837;28;20464;-57
2022/11/09 12:00:41;;;;;;;2.23;1.80;;;;;;;;;;4977330;28;20433;-56
2022/11/09 12:03:27;;;;;;;4.00;1.90;;;;;;;;;;4976507;28;20971;-58
2022/11/09 12:06:06;;;;;;;2.90;1.60;;;;;;;;;;4935934;28;20464;-56
2022/11/09 12:08:42;;;;;;;2.47;1.43;;;;;;;;;;4983231;28;20498;-58
2022/11/09 12:11:09;;;;;;;3.90;2.00;;;;;;;;;;4976048;28;20448;-56
2022/11/09 12:13:53;;;;;;;2.13;1.93;;;;;;;;;;4983815;28;20432;-56
2022/11/09 12:16:39;;;;;;;2.20;1.60;;;;;;;;;;4959940;28;20588;-57
2022/11/09 12:19:17;;;;;;;3.40;1.87;;;;;;;;;;4989920;28;20452;-56
2022/11/09 12:22:03;;;;;;;1.80;1.40;;;;;;;;;;4934456;28;20444;-56
2022/11/09 12:24:33;;;;;;;2.10;1.60;;;;;;;;;;4984254;28;20441;-56
2022/11/09 12:27:18;;;;;;;2.40;1.53;;;;;;;;;;4962160;28;20539;-56
2022/11/09 12:29:44;;;;;;;3.30;2.10;;;;;;;;;;4981384;28;20457;-56
2022/11/09 12:32:17;;;;;;;2.23;1.63;;;;;;;;;;4963578;28;20447;-56
2022/11/09 12:34:47;;;;;;;2.10;1.67;;;;;;;;;;4984570;28;20532;-57
2022/11/09 12:37:14;;;;;;;2.73;1.60;;;;;;;;;;4946371;28;20504;-55
2022/11/09 12:39:41;;;;;;;3.13;2.63;;;;;;;;;;4981907;28;20492;-56
2022/11/09 12:42:15;;;;;;;2.00;1.80;;;;;;;;;;4974663;28;20990;-55
2022/11/09 12:44:47;;;;;;;3.27;1.60;;;;;;;;;;4950019;28;20518;-55
2022/11/09 12:47:14;;;;;;;2.83;2.37;;;;;;;;;;4976446;28;20461;-55
2022/11/09 12:49:41;;;;;;;2.87;1.70;;;;;;;;;;4959139;28;21432;-55
2022/11/09 12:52:10;;;;;;;2.43;1.90;;;;;;;;;;4955485;28;20499;-54
2022/11/09 12:54:36;;;;;;;5.93;2.40;;;;;;;;;;4983169;28;20536;-56
2022/11/09 12:57:04;;;;;;;1.90;1.73;;;;;;;;;;4959653;28;20511;-56
2022/11/09 12:59:29;;;;;;;2.50;1.67;;;;;;;;;;4989443;28;20425;-56
2022/11/09 13:01:57;;;;;;;3.20;1.70;;;;;;;;;;4958498;28;20944;-55
2022/11/09 13:04:23;;;;;;;2.70;2.13;;;;;;;;;;4975247;28;20504;-56
2022/11/09 13:07:08;;;;;;;2.00;1.67;;;;;;;;;;4940864;28;20472;-56
2022/11/09 13:09:34;;;;;;;2.80;1.80;;;;;;;;;;4979490;28;20427;-56
2022/11/09 13:12:00;;;;;;;2.47;1.87;;;;;;;;;;4978698;28;20569;-56
2022/11/09 13:14:30;;;;;;;3.00;1.63;;;;;;;;;;4962177;28;20520;-55
2022/11/09 13:16:57;;;;;;;2.43;1.87;;;;;;;;;;4953831;28;20505;-55
2022/11/09 13:19:32;;;;;;;4.83;2.00;;;;;;;;;;4977359;28;20468;-55
2022/11/09 13:21:58;;;;;;;4.93;1.57;;;;;;;;;;4959414;28;20483;-56
2022/11/09 13:24:47;;;;;;;2.53;1.70;;;;;;;;;;4989576;28;20915;-55
2022/11/09 13:27:33;;;;;;;4.23;1.37;;;;;;;;;;4957850;28;20450;-57
2022/11/09 13:29:59;;;;;;;6.20;2.13;;;;;;;;;;4981563;28;20429;-60
2022/11/09 13:32:30;;;;;;;3.80;2.10;;;;;;;;;;4959147;28;20571;-57
2022/11/09 13:34:56;;;;;;;2.10;1.80;;;;;;;;;;4978616;28;20444;-57
2022/11/09 13:37:40;;;;;;;4.63;2.70;;;;;;;;;;4942325;28;20469;-57
2022/11/09 13:40:25;;;;;;;5.43;1.80;;;;;;;;;;4977648;28;20514;-58
2022/11/09 13:43:01;;;;;;;5.37;2.63;;;;;;;;;;4952268;28;20539;-57
2022/11/09 13:45:28;;;;;;;2.30;1.73;;;;;;;;;;4974733;28;20448;-57
2022/11/09 13:47:54;;;;;;;2.23;1.80;;;;;;;;;;4957801;28;20449;-57
2022/11/09 13:50:21;;;;;;;2.20;1.60;;;;;;;;;;4983118;28;20961;-57
2022/11/09 13:52:48;;;;;;;4.07;2.20;;;;;;;;;;4948606;28;20467;-56
2022/11/09 13:55:16;;;;;;;5.43;2.00;;;;;;;;;;4976576;28;20437;-55
2022/11/09 13:57:42;;;;;;;3.73;2.47;;;;;;;;;;4958113;28;21183;-57
2022/11/09 14:00:22;;;;;;;3.03;1.80;;;;;;;;;;4975979;28;20441;-58
2022/11/09 14:03:05;;;;;;;2.70;2.07;;;;;;;;;;4947269;28;20445;-57
2022/11/09 14:05:32;;;;;;;3.53;2.90;;;;;;;;;;4980738;28;20441;-55
2022/11/09 14:08:00;;;;;;;4.40;2.87;;;;;;;;;;4934990;28;20484;-57
2022/11/09 14:10:29;;;;;;;2.73;2.13;;;;;;;;;;4995568;28;20433;-56
2022/11/09 14:13:11;;;;;;;4.63;2.30;;;;;;;;;;4981027;28;20937;-60
2022/11/09 14:15:46;;;;;;;4.07;2.97;;;;;;;;;;4979057;28;20505;-58
2022/11/09 14:18:18;;;;;;;2.63;1.77;;;;;;;;;;4973655;28;20469;-57
2022/11/09 14:20:49;;;;;;;6.60;3.53;;;;;;;;;;4978970;28;21041;-57
2022/11/09 14:23:27;;;;;;;3.70;3.07;;;;;;;;;;4976688;28;20433;-57
2022/11/09 14:25:53;;;;;;;4.93;2.40;;;;;;;;;;4978519;28;20439;-57
2022/11/09 14:28:23;;;;;;;59.37;33.67;;;;;;;;;;4950889;28;20437;-55
2022/11/09 14:30:49;;;;;;;4.00;3.27;;;;;;;;;;4986345;28;20431;-57
2022/11/09 14:33:33;;;;;;;6.43;5.07;;;;;;;;;;4959300;28;20449;-56
2022/11/09 14:36:00;;;;;;;3.80;3.40;;;;;;;;;;4972693;28;23314;-57
2022/11/09 14:38:29;;;;;;;5.83;3.13;;;;;;;;;;4975663;28;20473;-56
2022/11/09 14:40:55;;;;;;;6.60;4.20;;;;;;;;;;4974674;28;21059;-57
2022/11/09 14:43:25;;;;;;;10.80;4.07;;;;;;;;;;4933688;28;20445;-57
2022/11/09 14:45:52;;;;;;;4.43;3.87;;;;;;;;;;4971306;28;20441;-57
2022/11/09 14:48:19;;;;;;;5.87;4.30;;;;;;;;;;4956256;28;20452;-57
2022/11/09 14:50:45;;;;;;;4.47;3.93;;;;;;;;;;4975945;28;21367;-57
2022/11/09 14:53:15;;;;;;;3.43;2.53;;;;;;;;;;4972740;28;20447;-56